< < Back
Terminal Aerodrome Forecast


Current Version              Previous Versions:   1  2  3  4  5  6  7  8  9  

Terminal Aerodrome Forecast

953
FTUS44 KHUN 232340
TAFHSV
TAF
KHSV 232340Z 2400/2424 05005KT P6SM SKC
     FM241000 12005KT P6SM FEW250
     FM241400 19009KT P6SM SCT250
     FM241800 17012G20KT P6SM SCT050 BKN250=

Latest METAR

438
SAUS80 KWBC 240700 RRA
MTRHSV
METAR KHSV 240653Z AUTO 00000KT 10SM CLR 09/06 A2996 RMK AO2 SLP141
T00940061


USA.gov is the U.S. government's official web portal to all federal, state and local government web resources and services.